Usk, Canada
Current Conditions -  °F | °C
As of 6:00 PM on Saturday 22 Nov 2014 (Local Time) from CYXT Reporting Station
Broken Clouds Broken Clouds  
Wind Chill: 30°   Ceiling: 6000
Heat Index: 37°   Visibility: 8mi
Dew Point: 34°   Wind: 12mph
Humidity: 87%   Direction: 160°SSE
Pressure: 29.63"   Gusts: NA
Location:  54.64°N, 128.41°W
Report Text: CYXT 230200Z 16010KT 100V180 8SM FEW003 SCT030 BKN060 BKN110 03/01 A2963 RMK CF2SC2SC1AC1 SLP043
Loading
Personal Weather Stations






























Interactive Weather Map New forecast layout! Learn more

10-Day Weather Forecast

Advertisements
Track Severe Weather on mobile